Time;durP1;ratioP1;P1;durP2;ratioP2;P2;SDS_P1;SDS_P2;PMS_P1;PMS_P2;Temp;Humidity;BMP_temperature;BMP_pressure;BME280_temperature;BME280_humidity;BME280_pressure;Samples;Min_cycle;Max_cycle;Signal;HPM_P1;HPM_P2
2023/04/05 00:02:17;;;;;;;6.53;4.20;;;0.10;99.90;;;;;;5040707;28;20223;-80
2023/04/05 00:04:50;;;;;;;8.10;4.80;;;0.10;99.90;;;;;;5040862;28;20222;-80
2023/04/05 00:07:17;;;;;;;7.17;4.80;;;0.00;99.90;;;;;;5058354;28;20545;-79
2023/04/05 00:09:45;;;;;;;7.53;4.87;;;0.00;99.90;;;;;;5057897;28;20293;-79
2023/04/05 00:12:12;;;;;;;8.70;4.63;;;0.20;99.90;;;;;;5057814;28;20199;-80
2023/04/05 00:14:40;;;;;;;7.83;4.43;;;0.20;99.90;;;;;;5058366;28;20219;-79
2023/04/05 00:17:07;;;;;;;9.47;4.70;;;0.20;99.90;;;;;;5058041;28;20262;-80
2023/04/05 00:19:35;;;;;;;8.93;4.70;;;0.20;99.90;;;;;;5055776;28;20207;-79
2023/04/05 00:22:02;;;;;;;7.37;4.57;;;-0.20;99.90;;;;;;5046920;28;20203;-79
2023/04/05 00:24:29;;;;;;;8.77;4.47;;;-0.20;99.90;;;;;;5042193;28;20246;-81
2023/04/05 00:26:56;;;;;;;7.00;4.60;;;-0.20;99.90;;;;;;5048892;28;20206;-81
2023/04/05 00:29:23;;;;;;;9.53;4.43;;;-0.10;99.90;;;;;;5039118;28;20218;-81
2023/04/05 00:31:51;;;;;;;10.20;4.93;;;-0.30;99.90;;;;;;5037857;28;20271;-80
2023/04/05 00:34:18;;;;;;;9.03;4.90;;;-0.50;99.90;;;;;;5037372;28;20594;-79
2023/04/05 00:36:45;;;;;;;8.70;4.83;;;-0.30;99.90;;;;;;5037241;28;20210;-81
2023/04/05 00:39:12;;;;;;;9.20;5.10;;;-0.20;99.90;;;;;;5036951;28;20243;-81
2023/04/05 00:41:39;;;;;;;7.77;5.17;;;-0.10;99.90;;;;;;5036233;28;20271;-80
2023/04/05 00:44:06;;;;;;;7.30;4.83;;;-0.10;99.90;;;;;;5035664;28;20317;-81
2023/04/05 00:46:35;;;;;;;7.87;4.60;;;0.00;99.90;;;;;;5036228;28;20618;-81
2023/04/05 00:49:03;;;;;;;8.83;4.90;;;0.00;99.90;;;;;;5035801;28;20212;-80
2023/04/05 00:51:32;;;;;;;7.93;4.50;;;-0.10;99.90;;;;;;5035244;28;20199;-79
2023/04/05 00:54:00;;;;;;;8.97;5.03;;;-0.10;99.90;;;;;;5035959;28;20250;-79
2023/04/05 00:56:28;;;;;;;7.87;4.70;;;-0.10;99.90;;;;;;5045325;28;20203;-79
2023/04/05 00:58:55;;;;;;;7.03;4.20;;;-0.20;99.90;;;;;;5050533;28;20206;-79
2023/04/05 01:01:25;;;;;;;7.00;4.23;;;-0.30;99.90;;;;;;5035506;28;20381;-78
2023/04/05 01:03:58;;;;;;;6.83;3.97;;;-0.30;99.90;;;;;;5048583;28;20234;-79
2023/04/05 01:06:42;;;;;;;7.33;4.10;;;-0.30;99.90;;;;;;5052731;28;20203;-78
2023/04/05 01:09:20;;;;;;;7.17;3.80;;;-0.50;99.90;;;;;;5044487;28;20187;-79
2023/04/05 01:11:48;;;;;;;9.07;4.60;;;-0.70;99.90;;;;;;5033188;28;20640;-80
2023/04/05 01:14:15;;;;;;;7.03;4.00;;;-0.90;99.90;;;;;;5034150;28;20227;-78
2023/04/05 01:16:42;;;;;;;6.53;3.80;;;-1.00;99.90;;;;;;5035705;28;20262;-78
2023/04/05 01:19:12;;;;;;;6.27;3.80;;;-0.90;99.90;;;;;;5056800;28;20209;-80
2023/04/05 01:22:14;;;;;;;6.20;4.20;;;-0.90;99.90;;;;;;5057550;28;20213;-80
2023/04/05 01:25:18;;;;;;;6.97;4.37;;;-1.00;99.90;;;;;;5056985;28;20752;-79
2023/04/05 01:28:08;;;;;;;5.20;4.20;;;-1.00;99.90;;;;;;5042044;28;20202;-80
2023/04/05 01:30:39;;;;;;;9.60;4.83;;;-0.90;99.90;;;;;;5056586;28;20298;-80
2023/04/05 01:33:14;;;;;;;6.70;4.13;;;-1.00;99.90;;;;;;5056183;28;20211;-80
2023/04/05 01:35:49;;;;;;;8.33;4.60;;;-1.10;99.90;;;;;;5055422;28;20210;-80
2023/04/05 01:38:20;;;;;;;5.53;3.90;;;-1.20;99.90;;;;;;5055212;28;20265;-80
2023/04/05 01:40:48;;;;;;;6.73;4.30;;;-1.50;99.90;;;;;;5046015;28;20206;-80
2023/04/05 01:43:16;;;;;;;7.07;4.53;;;-1.40;99.90;;;;;;5055171;28;20315;-79
2023/04/05 01:45:46;;;;;;;8.53;4.90;;;-1.20;99.90;;;;;;5055352;28;20205;-78
2023/04/05 01:48:14;;;;;;;7.97;4.17;;;-1.10;99.90;;;;;;5055570;28;20289;-78
2023/04/05 01:50:40;;;;;;;8.07;4.63;;;-0.90;99.90;;;;;;5057164;28;20592;-78
2023/04/05 01:53:08;;;;;;;5.97;4.10;;;-1.00;99.90;;;;;;5050832;28;20223;-78
2023/04/05 01:55:35;;;;;;;8.90;4.50;;;-1.10;99.90;;;;;;5035332;28;20204;-81
2023/04/05 01:58:02;;;;;;;7.33;4.20;;;-1.20;99.90;;;;;;5034425;28;20294;-79
2023/04/05 02:00:28;;;;;;;8.27;4.20;;;-1.20;99.90;;;;;;5035042;28;20199;-80
2023/04/05 02:02:57;;;;;;;7.97;4.40;;;-1.40;99.90;;;;;;5037053;28;20216;-80
2023/04/05 02:05:23;;;;;;;6.33;4.00;;;-1.50;99.90;;;;;;5039660;28;20209;-79
2023/04/05 02:07:50;;;;;;;7.87;4.60;;;-1.50;99.90;;;;;;5039763;28;20206;-79
2023/04/05 02:10:18;;;;;;;5.63;4.17;;;-1.60;99.90;;;;;;5040654;28;20566;-80
2023/04/05 02:12:45;;;;;;;7.27;4.57;;;-1.60;99.90;;;;;;5040148;28;20673;-79
2023/04/05 02:15:12;;;;;;;6.50;4.37;;;-1.70;99.90;;;;;;5040815;28;20218;-80
2023/04/05 02:17:39;;;;;;;6.97;4.83;;;-1.70;99.90;;;;;;5040268;28;20287;-81
2023/04/05 02:20:11;;;;;;;6.90;4.90;;;-1.60;99.90;;;;;;5040543;28;20199;-80
2023/04/05 02:22:38;;;;;;;8.03;4.87;;;-1.50;99.90;;;;;;5040478;28;20226;-82
2023/04/05 02:25:07;;;;;;;7.93;5.10;;;-1.60;99.90;;;;;;5040495;28;20618;-81
2023/04/05 02:27:34;;;;;;;8.97;5.40;;;-1.70;99.90;;;;;;5038731;28;20296;-80
2023/04/05 02:30:01;;;;;;;8.60;5.17;;;-1.70;99.90;;;;;;5041113;28;20328;-80
2023/04/05 02:32:28;;;;;;;9.07;4.80;;;-1.80;99.90;;;;;;5039229;28;20727;-81
2023/04/05 02:34:55;;;;;;;8.50;4.70;;;-1.60;99.90;;;;;;5038884;28;20291;-78
2023/04/05 02:37:24;;;;;;;9.03;5.50;;;-1.70;99.90;;;;;;5057975;28;20207;-80
2023/04/05 02:39:51;;;;;;;8.27;5.20;;;-1.60;99.90;;;;;;5051300;28;20211;-78
2023/04/05 02:42:18;;;;;;;7.43;5.20;;;-1.40;99.90;;;;;;5045658;28;20577;-82
2023/04/05 02:44:45;;;;;;;7.77;5.30;;;-1.40;99.90;;;;;;5058451;28;20226;-80
2023/04/05 02:47:16;;;;;;;7.23;4.60;;;-1.50;99.90;;;;;;5060136;28;20732;-80
2023/04/05 02:49:42;;;;;;;8.60;5.10;;;-1.50;99.90;;;;;;5060305;28;20254;-80
2023/04/05 02:52:09;;;;;;;6.17;4.57;;;-1.40;99.90;;;;;;5060661;28;20207;-80
2023/04/05 02:54:37;;;;;;;8.77;4.93;;;-1.30;99.90;;;;;;5060690;28;20231;-79
2023/04/05 02:57:05;;;;;;;10.40;5.60;;;-1.20;99.90;;;;;;5060727;28;20609;-80
2023/04/05 02:59:31;;;;;;;8.17;4.97;;;-1.10;99.90;;;;;;5042475;28;20611;-80
2023/04/05 03:01:58;;;;;;;7.13;4.63;;;-1.10;99.90;;;;;;5053952;28;20207;-79
2023/04/05 03:04:25;;;;;;;8.20;5.00;;;-1.20;99.90;;;;;;5050352;28;20219;-80
2023/04/05 03:06:53;;;;;;;10.20;5.07;;;-1.10;99.90;;;;;;5053615;28;20199;-80
2023/04/05 03:09:21;;;;;;;8.17;4.43;;;-1.10;99.90;;;;;;5060602;28;20241;-80
2023/04/05 03:11:49;;;;;;;7.40;4.80;;;-1.10;99.90;;;;;;5057272;28;20199;-81
2023/04/05 03:14:16;;;;;;;9.47;5.33;;;-1.20;99.90;;;;;;5044960;28;20279;-78
2023/04/05 03:16:43;;;;;;;7.97;4.60;;;-1.20;99.90;;;;;;5043643;28;20222;-79
2023/04/05 03:19:10;;;;;;;9.70;5.00;;;-1.30;99.90;;;;;;5058844;28;20202;-77
2023/04/05 03:21:38;;;;;;;8.83;4.67;;;-1.20;99.90;;;;;;5057151;28;20199;-81
2023/04/05 03:24:06;;;;;;;21.17;11.60;;;-1.30;99.90;;;;;;5058570;28;20222;-78
2023/04/05 03:26:33;;;;;;;9.67;6.00;;;-1.30;99.90;;;;;;5058986;28;20211;-80
2023/04/05 03:29:01;;;;;;;8.33;4.97;;;-1.20;99.90;;;;;;5060006;28;20203;-80
2023/04/05 03:31:29;;;;;;;7.77;4.30;;;-1.20;99.90;;;;;;5040410;28;20195;-80
2023/04/05 03:33:56;;;;;;;6.13;4.20;;;-1.40;99.90;;;;;;5039603;28;20218;-79
2023/04/05 03:36:23;;;;;;;7.60;4.30;;;-1.40;99.90;;;;;;5056306;28;20662;-79
2023/04/05 03:38:50;;;;;;;7.30;4.43;;;-1.30;99.90;;;;;;5039807;28;20203;-80
2023/04/05 03:41:20;;;;;;;6.63;3.70;;;-1.20;99.90;;;;;;5040676;28;20265;-80
2023/04/05 03:43:47;;;;;;;8.07;3.90;;;-1.10;99.90;;;;;;5039974;28;20243;-80
2023/04/05 03:46:15;;;;;;;7.50;4.13;;;-1.10;99.90;;;;;;5039970;28;20230;-78
2023/04/05 03:48:42;;;;;;;5.47;3.80;;;-1.20;99.90;;;;;;5040362;28;20238;-79
2023/04/05 03:51:09;;;;;;;7.30;4.10;;;-1.40;99.90;;;;;;5040415;28;20263;-80
2023/04/05 03:53:36;;;;;;;6.37;3.80;;;-1.50;99.90;;;;;;5036778;28;20223;-78
2023/04/05 03:56:03;;;;;;;6.57;3.70;;;-1.80;99.90;;;;;;5035981;28;20307;-78
2023/04/05 03:58:30;;;;;;;6.67;3.73;;;-1.80;99.90;;;;;;5035491;28;20211;-78
2023/04/05 04:00:57;;;;;;;7.07;3.87;;;-2.10;99.90;;;;;;5036259;28;20748;-78
2023/04/05 04:03:27;;;;;;;8.13;4.20;;;-1.80;99.90;;;;;;5035287;28;20253;-78
2023/04/05 04:05:54;;;;;;;8.50;3.70;;;-1.80;99.90;;;;;;5035628;28;20295;-78
2023/04/05 04:08:21;;;;;;;5.77;3.63;;;-2.00;99.90;;;;;;5035091;28;20238;-78
2023/04/05 04:10:48;;;;;;;6.30;3.93;;;-2.20;99.90;;;;;;5034438;28;20653;-78
2023/04/05 04:13:15;;;;;;;7.17;3.93;;;-2.10;99.90;;;;;;5035194;28;20719;-78
2023/04/05 04:15:41;;;;;;;5.97;3.73;;;-2.10;99.90;;;;;;5035209;28;20298;-79
2023/04/05 04:18:08;;;;;;;6.60;4.10;;;-2.00;99.90;;;;;;5034990;28;20294;-78
2023/04/05 04:20:36;;;;;;;6.90;3.90;;;-1.80;99.90;;;;;;5034925;28;20290;-78
2023/04/05 04:23:08;;;;;;;7.17;4.20;;;-2.00;99.90;;;;;;5035194;28;20731;-78
2023/04/05 04:25:36;;;;;;;7.40;4.10;;;-1.80;99.90;;;;;;5035513;28;20374;-78
2023/04/05 04:28:05;;;;;;;8.00;3.93;;;-1.70;99.90;;;;;;5047466;28;20199;-78
2023/04/05 04:30:33;;;;;;;6.43;3.97;;;-1.60;99.90;;;;;;5036756;28;20678;-78
2023/04/05 04:33:02;;;;;;;9.40;4.80;;;-1.50;99.90;;;;;;5034729;28;20231;-78
2023/04/05 04:35:32;;;;;;;8.47;4.27;;;-1.50;99.90;;;;;;5034438;28;20215;-78
2023/04/05 04:38:02;;;;;;;8.43;4.07;;;-1.50;99.90;;;;;;5034275;28;20257;-79
2023/04/05 04:40:31;;;;;;;7.67;4.47;;;-1.60;99.90;;;;;;5035248;28;20566;-78
2023/04/05 04:42:59;;;;;;;8.47;4.90;;;-1.50;99.90;;;;;;5034277;28;20709;-78
2023/04/05 04:45:26;;;;;;;8.83;4.53;;;-1.30;99.90;;;;;;5034208;28;20227;-78
2023/04/05 04:47:53;;;;;;;7.97;4.80;;;-1.20;99.90;;;;;;5033444;28;20226;-78
2023/04/05 04:50:21;;;;;;;7.43;4.87;;;-1.20;99.90;;;;;;5033040;28;20230;-78
2023/04/05 04:52:48;;;;;;;7.73;4.53;;;-1.20;99.90;;;;;;5031819;28;20286;-78
2023/04/05 04:55:16;;;;;;;11.10;4.43;;;-1.20;99.90;;;;;;5024332;28;20318;-78
2023/04/05 04:57:43;;;;;;;5.67;4.23;;;-1.30;99.90;;;;;;5036851;28;20208;-78
2023/04/05 05:00:13;;;;;;;6.83;4.03;;;-1.40;99.90;;;;;;5031504;28;20215;-78
2023/04/05 05:02:41;;;;;;;7.77;4.40;;;-1.40;99.90;;;;;;5026890;28;20208;-78
2023/04/05 05:05:09;;;;;;;6.43;4.17;;;-1.50;99.90;;;;;;5029138;28;20226;-78
2023/04/05 05:07:36;;;;;;;7.90;4.10;;;-1.50;99.90;;;;;;5023205;28;20696;-78
2023/04/05 05:10:04;;;;;;;6.63;3.87;;;-1.50;99.90;;;;;;5023403;28;20300;-78
2023/04/05 05:12:32;;;;;;;7.67;4.80;;;-1.30;99.90;;;;;;5020617;28;20215;-78
2023/04/05 05:14:59;;;;;;;6.90;4.53;;;-1.10;99.90;;;;;;5020720;28;20214;-79
2023/04/05 05:17:25;;;;;;;7.30;3.70;;;-1.00;99.90;;;;;;5023025;28;20210;-79
2023/04/05 05:19:52;;;;;;;7.43;4.83;;;-0.90;99.90;;;;;;5022015;28;20211;-78
2023/04/05 05:22:19;;;;;;;6.37;4.13;;;-0.80;99.90;;;;;;5025213;28;20238;-78
2023/04/05 05:24:46;;;;;;;5.83;4.03;;;-0.80;99.90;;;;;;5022399;28;20227;-78
2023/04/05 05:27:14;;;;;;;8.43;4.40;;;-0.80;99.90;;;;;;5025231;28;20620;-79
2023/04/05 05:29:42;;;;;;;8.30;4.20;;;-0.80;99.90;;;;;;5023097;28;20247;-79
2023/04/05 05:32:13;;;;;;;7.30;4.67;;;-0.70;99.90;;;;;;5023908;28;20207;-79
2023/04/05 05:34:40;;;;;;;7.43;4.73;;;-0.50;99.90;;;;;;5034007;28;20223;-79
2023/04/05 05:37:08;;;;;;;8.70;4.57;;;-0.40;99.90;;;;;;5033436;28;20199;-79
2023/04/05 05:39:35;;;;;;;8.17;4.60;;;-0.20;99.90;;;;;;5033953;28;20663;-79
2023/04/05 05:42:01;;;;;;;7.00;4.10;;;-0.30;99.90;;;;;;5034355;28;20290;-79
2023/04/05 05:44:28;;;;;;;9.50;5.00;;;-0.40;99.90;;;;;;5034546;28;20688;-79
2023/04/05 05:46:57;;;;;;;8.13;4.60;;;-0.60;99.90;;;;;;5033816;28;20585;-79
2023/04/05 05:49:23;;;;;;;8.73;4.20;;;-0.50;99.90;;;;;;5034327;28;20254;-79
2023/04/05 05:51:51;;;;;;;7.97;4.47;;;-0.40;99.90;;;;;;5033225;28;20212;-79
2023/04/05 05:54:18;;;;;;;7.30;4.30;;;-0.40;99.90;;;;;;5033964;28;20231;-79
2023/04/05 05:56:45;;;;;;;6.00;3.67;;;-0.20;99.90;;;;;;5036073;28;20203;-79
2023/04/05 05:59:12;;;;;;;7.53;4.40;;;-0.10;99.90;;;;;;5039934;28;20238;-79
2023/04/05 06:01:41;;;;;;;6.63;4.20;;;0.10;99.90;;;;;;5034384;28;20210;-79
2023/04/05 06:04:09;;;;;;;7.97;4.13;;;0.20;99.90;;;;;;5032374;28;20723;-79
2023/04/05 06:06:36;;;;;;;6.90;3.73;;;0.30;99.90;;;;;;5047613;28;20669;-79
2023/04/05 06:09:03;;;;;;;7.53;4.20;;;0.40;99.90;;;;;;5054478;28;20285;-79
2023/04/05 06:11:30;;;;;;;9.07;4.13;;;0.40;99.90;;;;;;5054038;28;20306;-79
2023/04/05 06:13:57;;;;;;;6.07;4.00;;;0.60;99.90;;;;;;5053975;28;20528;-79
2023/04/05 06:16:24;;;;;;;5.40;3.67;;;0.60;99.90;;;;;;5054084;28;20672;-79
2023/04/05 06:18:51;;;;;;;6.10;3.83;;;0.50;99.90;;;;;;5053786;28;20559;-79
2023/04/05 06:21:19;;;;;;;6.23;3.70;;;0.60;99.90;;;;;;5053235;28;20657;-79
2023/04/05 06:23:46;;;;;;;5.83;3.77;;;0.50;99.90;;;;;;5053312;28;20233;-79
2023/04/05 06:26:17;;;;;;;8.50;4.37;;;0.30;99.90;;;;;;5053080;28;20207;-79
2023/04/05 06:28:46;;;;;;;8.07;4.23;;;0.50;99.90;;;;;;5053485;28;20253;-79
2023/04/05 06:31:14;;;;;;;6.83;3.93;;;0.60;99.90;;;;;;5053252;28;20199;-79
2023/04/05 06:33:41;;;;;;;5.83;4.07;;;0.60;99.90;;;;;;5052999;28;20245;-79
2023/04/05 06:36:08;;;;;;;6.83;4.10;;;0.70;99.90;;;;;;5052184;28;20203;-79
2023/04/05 06:38:36;;;;;;;8.77;4.73;;;0.80;99.90;;;;;;5052834;28;20199;-79
2023/04/05 06:41:03;;;;;;;9.27;4.60;;;0.80;99.90;;;;;;5050308;28;20293;-79
2023/04/05 06:43:32;;;;;;;9.57;4.17;;;0.90;99.90;;;;;;5040797;28;20787;-79
2023/04/05 06:45:59;;;;;;;7.20;3.90;;;1.00;99.90;;;;;;5039931;28;20230;-79
2023/04/05 06:48:28;;;;;;;8.60;4.33;;;1.10;99.90;;;;;;5033161;28;20214;-79
2023/04/05 06:50:58;;;;;;;11.03;5.27;;;1.00;99.90;;;;;;5036007;28;20212;-79
2023/04/05 06:53:26;;;;;;;9.23;4.90;;;1.20;99.90;;;;;;5044153;28;20348;-79
2023/04/05 06:55:54;;;;;;;8.87;4.20;;;1.20;99.90;;;;;;5037371;28;20286;-79
2023/04/05 06:58:22;;;;;;;7.10;4.70;;;1.30;99.90;;;;;;5037219;28;20746;-80
2023/04/05 07:00:49;;;;;;;9.83;4.73;;;1.50;99.90;;;;;;5037630;28;20234;-79
2023/04/05 07:03:16;;;;;;;8.27;4.63;;;1.50;99.90;;;;;;5037579;28;20224;-79
2023/04/05 07:05:50;;;;;;;11.60;5.77;;;1.70;99.90;;;;;;5036851;28;20253;-79
2023/04/05 07:08:18;;;;;;;12.83;5.57;;;2.00;99.90;;;;;;5036588;28;20198;-80
2023/04/05 07:10:44;;;;;;;8.30;4.67;;;2.20;99.90;;;;;;5036872;28;20199;-80
2023/04/05 07:13:13;;;;;;;7.50;4.77;;;2.20;99.90;;;;;;5036802;28;20224;-80
2023/04/05 07:15:40;;;;;;;7.93;4.57;;;2.50;99.90;;;;;;5039481;28;20199;-80
2023/04/05 07:18:07;;;;;;;7.57;4.70;;;2.40;99.90;;;;;;5045330;28;20235;-80
2023/04/05 07:20:34;;;;;;;6.67;4.30;;;2.50;99.90;;;;;;5037655;28;20203;-80
2023/04/05 07:23:01;;;;;;;5.33;3.90;;;2.70;99.90;;;;;;5036585;28;20232;-80
2023/04/05 07:25:28;;;;;;;6.83;4.10;;;2.70;99.90;;;;;;5035988;28;20224;-80
2023/04/05 07:27:55;;;;;;;7.37;4.47;;;2.80;99.90;;;;;;5036212;28;20213;-80
2023/04/05 07:30:25;;;;;;;7.87;4.20;;;3.00;99.90;;;;;;5036621;28;20600;-80
2023/04/05 07:32:52;;;;;;;7.43;4.57;;;3.10;99.90;;;;;;5036240;28;20593;-81
2023/04/05 07:35:18;;;;;;;11.10;4.53;;;3.20;99.90;;;;;;5036807;28;20207;-80
2023/04/05 07:37:45;;;;;;;10.50;5.83;;;3.60;99.90;;;;;;5036175;28;20214;-80
2023/04/05 07:40:13;;;;;;;8.40;4.87;;;4.90;99.90;;;;;;5036009;28;20212;-80
2023/04/05 07:42:40;;;;;;;7.00;4.57;;;6.30;99.90;;;;;;5037146;28;20677;-81
2023/04/05 07:45:08;;;;;;;7.73;4.67;;;6.00;99.90;;;;;;5035845;28;20234;-81
2023/04/05 07:47:36;;;;;;;7.00;3.33;;;5.40;99.90;;;;;;5035370;28;20210;-81
2023/04/05 07:50:03;;;;;;;8.63;4.27;;;5.20;99.90;;;;;;5035998;28;20207;-81
2023/04/05 07:52:30;;;;;;;5.27;3.57;;;5.60;99.90;;;;;;5052033;28;20646;-81
2023/04/05 07:54:57;;;;;;;6.97;4.37;;;5.40;99.90;;;;;;5035808;28;20290;-81
2023/04/05 07:57:23;;;;;;;6.70;4.13;;;5.40;99.90;;;;;;5052171;28;20211;-81
2023/04/05 07:59:51;;;;;;;6.43;4.30;;;5.50;99.90;;;;;;5055596;28;20230;-81
2023/04/05 08:02:18;;;;;;;10.53;5.57;;;5.40;99.90;;;;;;5055688;28;20203;-81
2023/04/05 08:04:47;;;;;;;10.60;5.57;;;6.10;99.90;;;;;;5055212;28;20223;-81
2023/04/05 08:07:13;;;;;;;9.23;4.60;;;6.00;99.90;;;;;;5055246;28;20753;-81
2023/04/05 08:09:40;;;;;;;9.90;4.90;;;6.00;99.90;;;;;;5055628;28;20225;-81
2023/04/05 08:12:07;;;;;;;8.83;5.03;;;5.60;99.90;;;;;;5035475;28;20214;-81
2023/04/05 08:14:34;;;;;;;6.90;4.47;;;5.40;99.90;;;;;;5035261;28;20266;-81
2023/04/05 08:17:01;;;;;;;10.67;4.83;;;5.60;99.90;;;;;;5034886;28;20203;-81
2023/04/05 08:19:28;;;;;;;6.87;4.30;;;5.70;99.90;;;;;;5034843;28;20210;-81
2023/04/05 08:21:56;;;;;;;7.67;5.00;;;5.80;99.90;;;;;;5035177;28;20258;-81
2023/04/05 08:24:23;;;;;;;11.10;5.80;;;6.00;99.90;;;;;;5034805;28;20724;-81
2023/04/05 08:26:50;;;;;;;9.67;4.90;;;5.90;99.90;;;;;;5043514;28;20201;-81
2023/04/05 08:29:17;;;;;;;9.47;4.93;;;6.20;99.90;;;;;;5046775;28;20203;-81
2023/04/05 08:31:43;;;;;;;10.37;4.53;;;6.40;99.90;;;;;;5054729;28;20199;-81
2023/04/05 08:34:10;;;;;;;12.00;4.93;;;6.70;99.90;;;;;;5053634;28;20323;-81
2023/04/05 08:36:37;;;;;;;9.67;4.90;;;6.70;99.90;;;;;;5047745;28;20203;-81
2023/04/05 08:39:05;;;;;;;7.27;4.70;;;6.60;99.90;;;;;;5034872;28;20207;-81
2023/04/05 08:41:36;;;;;;;7.20;4.43;;;6.80;99.90;;;;;;5033425;28;20290;-81
2023/04/05 08:44:04;;;;;;;6.47;4.67;;;6.70;99.90;;;;;;5034041;28;20701;-81
2023/04/05 08:46:32;;;;;;;8.60;4.33;;;6.70;99.90;;;;;;5033614;28;20230;-81
2023/04/05 08:49:00;;;;;;;5.67;4.07;;;6.70;1.00;;;;;;5033620;28;20209;-81
2023/04/05 08:51:28;;;;;;;6.43;4.00;;;7.10;1.00;;;;;;5033666;28;20768;-81
2023/04/05 08:53:55;;;;;;;6.73;3.70;;;7.10;1.00;;;;;;5033375;28;20224;-81
2023/04/05 08:56:26;;;;;;;7.73;4.20;;;7.50;1.00;;;;;;5034819;28;20562;-81
2023/04/05 08:58:58;;;;;;;8.13;3.77;;;7.30;99.90;;;;;;5035453;28;20231;-81
2023/04/05 09:01:29;;;;;;;4.67;3.43;;;7.30;99.90;;;;;;5037495;28;20204;-81
2023/04/05 09:03:57;;;;;;;4.87;3.70;;;7.60;99.90;;;;;;5037239;28;20307;-81
2023/04/05 09:06:25;;;;;;;6.00;3.50;;;7.60;99.90;;;;;;5044880;28;20511;-81
2023/04/05 09:08:53;;;;;;;4.57;3.40;;;7.80;4.00;;;;;;5045264;28;20195;-81
2023/04/05 09:11:20;;;;;;;6.33;3.87;;;8.60;99.90;;;;;;5046636;28;20203;-81
2023/04/05 09:13:48;;;;;;;7.70;3.90;;;8.30;1.00;;;;;;5034692;28;20326;-81
2023/04/05 09:16:17;;;;;;;7.40;3.80;;;8.80;1.00;;;;;;5034458;28;20211;-80
2023/04/05 09:18:44;;;;;;;8.23;4.07;;;8.20;1.00;;;;;;5035686;28;20207;-81
2023/04/05 09:21:11;;;;;;;5.90;3.20;;;8.80;1.00;;;;;;5035079;28;20261;-81
2023/04/05 09:23:50;;;;;;;4.40;2.90;;;9.80;1.00;;;;;;5035696;28;20238;-81
2023/04/05 09:26:21;;;;;;;4.77;2.93;;;10.00;1.00;;;;;;5038733;28;20261;-81
2023/04/05 09:28:50;;;;;;;5.70;2.90;;;10.00;1.00;;;;;;5034435;28;20265;-81
2023/04/05 09:31:31;;;;;;;4.43;2.53;;;10.20;1.00;;;;;;5034593;28;20210;-81
2023/04/05 09:33:59;;;;;;;2.83;2.20;;;10.70;1.00;;;;;;5034454;28;20231;-81
2023/04/05 09:36:27;;;;;;;3.30;2.30;;;10.00;99.90;;;;;;5034215;28;20693;-81
2023/04/05 09:39:03;;;;;;;4.20;2.60;;;10.30;99.90;;;;;;5034554;28;20254;-81
2023/04/05 09:41:30;;;;;;;4.33;2.50;;;10.40;99.90;;;;;;5048018;28;20302;-81
2023/04/05 09:43:59;;;;;;;3.60;2.23;;;10.50;99.90;;;;;;5054510;28;20219;-81
2023/04/05 09:46:34;;;;;;;2.33;2.10;;;11.70;99.90;;;;;;5053213;28;20595;-81
2023/04/05 09:49:02;;;;;;;5.17;2.90;;;12.00;99.90;;;;;;5055086;28;20589;-81
2023/04/05 09:51:33;;;;;;;2.90;2.63;;;11.50;99.90;;;;;;5055063;28;20211;-81
2023/04/05 09:54:02;;;;;;;3.97;2.80;;;12.00;72.00;;;;;;5054647;28;20661;-81
2023/04/05 09:56:30;;;;;;;3.20;2.43;;;10.80;1.00;;;;;;5054935;28;20216;-81
2023/04/05 09:59:03;;;;;;;3.00;2.70;;;10.10;99.90;;;;;;5045587;28;20701;-81
2023/04/05 10:01:31;;;;;;;4.33;2.83;;;10.10;99.90;;;;;;5035203;28;20195;-82
2023/04/05 10:03:59;;;;;;;4.77;3.20;;;10.40;99.90;;;;;;5043462;28;20278;-81
2023/04/05 10:06:36;;;;;;;4.73;3.43;;;10.80;99.90;;;;;;5051491;28;20222;-81
2023/04/05 10:09:04;;;;;;;4.67;3.57;;;10.00;1.00;;;;;;5053708;28;20649;-81
2023/04/05 10:11:32;;;;;;;5.27;3.60;;;10.10;1.00;;;;;;5039044;28;20618;-81
2023/04/05 10:14:02;;;;;;;4.20;3.43;;;10.10;1.00;;;;;;5034139;28;20609;-81
2023/04/05 10:16:32;;;;;;;4.23;3.07;;;10.20;1.00;;;;;;5033297;28;20203;-81
2023/04/05 10:18:59;;;;;;;5.83;3.23;;;10.20;1.00;;;;;;5033913;28;20620;-81
2023/04/05 10:21:29;;;;;;;4.07;3.33;;;10.90;1.00;;;;;;5033292;28;20724;-81
2023/04/05 10:24:05;;;;;;;6.77;3.70;;;10.90;1.00;;;;;;5033526;28;20709;-82
2023/04/05 10:26:44;;;;;;;4.53;3.50;;;9.70;1.00;;;;;;5036914;28;20223;-82
2023/04/05 10:29:22;;;;;;;3.90;3.50;;;11.20;1.00;;;;;;5036950;28;20298;-81
2023/04/05 10:31:53;;;;;;;3.63;3.33;;;11.50;1.00;;;;;;5037558;28;20297;-81
2023/04/05 10:34:28;;;;;;;3.77;3.37;;;12.10;1.00;;;;;;5036812;28;20347;-82
2023/04/05 10:36:59;;;;;;;4.67;3.23;;;11.60;1.00;;;;;;5037128;28;20195;-82
2023/04/05 10:39:28;;;;;;;5.47;3.67;;;11.70;1.00;;;;;;5037005;28;20222;-81
2023/04/05 10:42:01;;;;;;;4.03;3.23;;;11.10;99.90;;;;;;5036905;28;20216;-81
2023/04/05 10:44:31;;;;;;;4.00;3.60;;;10.80;99.90;;;;;;5036899;28;20216;-81
2023/04/05 10:46:59;;;;;;;5.77;3.80;;;10.00;99.90;;;;;;5036416;28;20219;-81
2023/04/05 10:49:34;;;;;;;4.20;3.80;;;10.10;99.90;;;;;;5036518;28;20218;-81
2023/04/05 10:52:02;;;;;;;5.50;3.93;;;9.90;71.30;;;;;;5036527;28;20207;-81
2023/04/05 10:54:29;;;;;;;5.30;3.83;;;10.00;41.50;;;;;;5044865;28;20597;-81
2023/04/05 10:56:57;;;;;;;4.83;3.73;;;9.80;1.00;;;;;;5044322;28;20200;-82
2023/04/05 10:59:24;;;;;;;5.63;3.73;;;10.30;24.40;;;;;;5052415;28;20288;-81
2023/04/05 11:01:54;;;;;;;5.00;4.00;;;9.70;1.00;;;;;;5056959;28;20209;-81
2023/04/05 11:04:20;;;;;;;4.70;3.97;;;10.00;1.00;;;;;;5057248;28;20599;-82
2023/04/05 11:06:47;;;;;;;7.70;4.37;;;10.30;1.00;;;;;;5049842;28;20606;-82
2023/04/05 11:09:19;;;;;;;5.13;4.60;;;9.20;1.00;;;;;;5051895;28;20637;-81
2023/04/05 11:11:47;;;;;;;5.87;4.23;;;8.60;1.00;;;;;;5039293;28;20208;-81
2023/04/05 11:14:20;;;;;;;5.53;4.20;;;8.90;1.00;;;;;;5036869;28;20727;-81
2023/04/05 11:16:48;;;;;;;5.37;4.50;;;10.10;1.00;;;;;;5036508;28;20282;-81
2023/04/05 11:19:18;;;;;;;6.50;4.80;;;10.20;1.00;;;;;;5036436;28;20214;-81
2023/04/05 11:21:45;;;;;;;7.77;4.60;;;9.60;1.00;;;;;;5037657;28;20270;-81
2023/04/05 11:24:14;;;;;;;5.20;4.40;;;9.50;1.00;;;;;;5037253;28;20278;-81
2023/04/05 11:26:54;;;;;;;5.57;4.23;;;9.70;1.00;;;;;;5037087;28;20258;-82
2023/04/05 11:29:46;;;;;;;5.53;4.60;;;9.70;1.00;;;;;;5037227;28;20219;-82
2023/04/05 11:32:13;;;;;;;6.10;4.20;;;9.20;1.00;;;;;;5037673;28;20573;-81
2023/04/05 11:34:43;;;;;;;5.90;3.80;;;9.70;1.00;;;;;;5036910;28;20231;-81
2023/04/05 11:37:12;;;;;;;5.47;3.90;;;9.30;1.00;;;;;;5037510;28;20575;-81
2023/04/05 11:39:40;;;;;;;6.27;4.67;;;9.30;1.00;;;;;;5045542;28;20258;-81
2023/04/05 11:42:11;;;;;;;6.77;3.83;;;9.20;1.00;;;;;;5037189;28;20211;-81
2023/04/05 11:44:41;;;;;;;5.33;3.83;;;9.70;1.00;;;;;;5036891;28;20645;-81
2023/04/05 11:47:09;;;;;;;4.87;4.00;;;9.60;1.00;;;;;;5036505;28;20230;-81
2023/04/05 11:49:37;;;;;;;5.03;4.07;;;9.70;1.00;;;;;;5037189;28;20243;-81
2023/04/05 11:52:15;;;;;;;5.83;3.93;;;9.80;1.00;;;;;;5036597;28;20242;-81
2023/04/05 11:54:45;;;;;;;6.63;4.10;;;9.70;1.00;;;;;;5036465;28;20739;-81
2023/04/05 11:57:14;;;;;;;4.87;3.73;;;9.40;1.00;;;;;;5035075;28;20290;-81
2023/04/05 11:59:41;;;;;;;6.07;3.90;;;9.80;1.00;;;;;;5035236;28;20213;-82
2023/04/05 12:02:08;;;;;;;5.70;4.17;;;9.40;1.00;;;;;;5036225;28;20231;-82
2023/04/05 12:04:35;;;;;;;5.63;3.60;;;9.80;1.00;;;;;;5035866;28;20236;-82
2023/04/05 12:07:14;;;;;;;6.67;3.83;;;9.70;1.00;;;;;;5035823;28;20323;-81
2023/04/05 12:10:04;;;;;;;5.20;3.50;;;9.50;1.00;;;;;;5033701;28;20213;-81
2023/04/05 12:12:37;;;;;;;5.53;3.90;;;10.70;1.00;;;;;;5033588;28;20204;-82
2023/04/05 12:15:07;;;;;;;6.40;3.73;;;11.10;1.00;;;;;;5033498;28;20306;-81
2023/04/05 12:17:42;;;;;;;7.03;4.40;;;10.70;1.00;;;;;;5032215;28;20235;-81
2023/04/05 12:20:10;;;;;;;6.30;4.30;;;10.20;1.00;;;;;;5032503;28;20231;-82
2023/04/05 12:22:40;;;;;;;4.27;3.73;;;9.90;1.00;;;;;;5042088;28;20205;-81
2023/04/05 12:25:09;;;;;;;5.03;3.70;;;9.60;1.00;;;;;;5034038;28;20208;-81
2023/04/05 12:27:36;;;;;;;4.53;3.53;;;9.50;99.90;;;;;;5034650;28;20323;-81
2023/04/05 12:30:13;;;;;;;4.13;3.73;;;9.00;99.90;;;;;;5034977;28;20307;-81
2023/04/05 12:32:47;;;;;;;7.20;3.97;;;8.80;99.90;;;;;;5055052;28;20203;-81
2023/04/05 12:35:17;;;;;;;5.67;3.70;;;9.10;99.90;;;;;;5041474;28;20238;-81
2023/04/05 12:37:46;;;;;;;5.33;4.00;;;9.20;99.90;;;;;;5055415;28;20309;-81
2023/04/05 12:40:13;;;;;;;5.63;4.07;;;9.40;99.90;;;;;;5036619;28;20267;-81
2023/04/05 12:42:41;;;;;;;6.37;3.77;;;9.20;99.90;;;;;;5034489;28;20211;-81
2023/04/05 12:45:11;;;;;;;5.23;3.80;;;9.50;99.90;;;;;;5035312;28;20208;-81
2023/04/05 12:47:48;;;;;;;5.00;3.47;;;10.00;99.90;;;;;;5033277;28;20227;-81
2023/04/05 12:50:17;;;;;;;4.00;3.60;;;9.60;99.90;;;;;;5048936;28;20280;-81
2023/04/05 12:52:55;;;;;;;6.63;4.00;;;9.90;99.90;;;;;;5055010;28;20229;-81
2023/04/05 12:55:24;;;;;;;5.97;4.23;;;9.40;99.90;;;;;;5052787;28;20242;-81
2023/04/05 12:57:52;;;;;;;4.90;4.23;;;9.50;99.90;;;;;;5035444;28;20204;-81
2023/04/05 13:00:23;;;;;;;5.57;4.40;;;9.60;99.90;;;;;;5038266;28;20210;-81
2023/04/05 13:02:52;;;;;;;5.63;4.10;;;9.10;99.90;;;;;;5039565;28;20720;-81